createdAt,value
2018-10-09T00:00:47.238Z,968.60
2018-10-09T00:01:47.204Z,968.58
2018-10-09T00:02:47.200Z,968.65
2018-10-09T00:03:47.197Z,968.63
2018-10-09T00:04:47.192Z,968.62
2018-10-09T00:05:47.214Z,968.63
2018-10-09T00:06:47.202Z,968.64
2018-10-09T00:07:47.185Z,968.69
2018-10-09T00:08:47.183Z,968.66
2018-10-09T00:09:47.181Z,968.68
2018-10-09T00:10:47.178Z,968.70
2018-10-09T00:11:47.176Z,968.70
2018-10-09T00:12:47.175Z,968.68
2018-10-09T00:13:47.171Z,968.71
2018-10-09T00:14:47.166Z,968.71
2018-10-09T00:15:47.165Z,968.73
2018-10-09T00:16:47.164Z,968.74
2018-10-09T00:17:47.161Z,968.73
2018-10-09T00:18:47.155Z,968.70
2018-10-09T00:19:47.157Z,968.70
2018-10-09T00:20:47.153Z,968.69
2018-10-09T00:21:47.149Z,968.70
2018-10-09T00:22:47.148Z,968.69
2018-10-09T00:23:47.145Z,968.70
2018-10-09T00:24:47.143Z,968.69
2018-10-09T00:25:47.140Z,968.67
2018-10-09T00:26:47.136Z,968.67
2018-10-09T00:27:47.135Z,968.65
2018-10-09T00:28:47.131Z,968.66
2018-10-09T00:29:47.128Z,968.66
2018-10-09T00:30:47.127Z,968.63
2018-10-09T00:31:47.124Z,968.64
2018-10-09T00:32:47.122Z,968.66
2018-10-09T00:33:47.120Z,968.68
2018-10-09T00:34:47.116Z,968.68
2018-10-09T00:35:47.113Z,968.69
2018-10-09T00:36:47.112Z,968.69
2018-10-09T00:37:47.111Z,968.75
2018-10-09T00:38:47.110Z,968.74
2018-10-09T00:39:47.103Z,968.75
2018-10-09T00:40:47.102Z,968.76
2018-10-09T00:41:47.095Z,968.74
2018-10-09T00:42:47.097Z,968.80
2018-10-09T00:43:47.112Z,968.75
2018-10-09T00:44:47.094Z,968.77
2018-10-09T00:45:47.088Z,968.82
2018-10-09T00:46:47.086Z,968.84
2018-10-09T00:47:47.081Z,968.85
2018-10-09T00:48:47.081Z,968.83
2018-10-09T00:49:47.081Z,968.85
2018-10-09T00:50:47.075Z,968.83
2018-10-09T00:51:47.072Z,968.80
2018-10-09T00:52:47.070Z,968.82
2018-10-09T00:53:47.072Z,968.82
2018-10-09T00:54:47.065Z,968.81
2018-10-09T00:55:47.066Z,968.79
2018-10-09T00:56:47.060Z,968.78
2018-10-09T00:57:47.057Z,968.82
2018-10-09T00:58:47.055Z,968.86
2018-10-09T00:59:47.062Z,968.79
2018-10-09T01:00:47.049Z,968.84
2018-10-09T01:01:47.047Z,968.86
2018-10-09T01:02:47.048Z,968.86
2018-10-09T01:03:47.041Z,968.92
2018-10-09T01:04:47.039Z,968.87
2018-10-09T01:05:47.037Z,968.90
2018-10-09T01:06:47.033Z,968.88
2018-10-09T01:07:47.032Z,968.92
2018-10-09T01:08:47.028Z,968.91
2018-10-09T01:09:47.031Z,968.88
2018-10-09T01:10:47.024Z,968.86
2018-10-09T01:11:47.022Z,968.81
2018-10-09T01:12:47.017Z,968.83
2018-10-09T01:13:47.016Z,968.75
2018-10-09T01:14:47.013Z,968.68
2018-10-09T01:15:47.020Z,968.69
2018-10-09T01:16:47.006Z,968.65
2018-10-09T01:17:47.006Z,968.59
2018-10-09T01:18:47.005Z,968.62
2018-10-09T01:19:46.996Z,968.61
2018-10-09T01:20:46.998Z,968.58
2018-10-09T01:21:46.993Z,968.57
2018-10-09T01:22:46.990Z,968.57
2018-10-09T01:23:46.991Z,968.62
2018-10-09T01:24:46.990Z,968.60
2018-10-09T01:25:46.982Z,968.59
2018-10-09T01:26:46.979Z,968.60
2018-10-09T01:27:46.979Z,968.59
2018-10-09T01:28:46.973Z,968.61
2018-10-09T01:29:46.970Z,968.64
2018-10-09T01:30:46.968Z,968.64
2018-10-09T01:31:46.964Z,968.64
2018-10-09T01:32:46.962Z,968.66
2018-10-09T01:33:46.960Z,968.65
2018-10-09T01:34:46.958Z,968.65
2018-10-09T01:35:46.953Z,968.63
2018-10-09T01:36:46.952Z,968.68
2018-10-09T01:37:46.951Z,968.69
2018-10-09T01:38:46.948Z,968.66
2018-10-09T01:39:46.946Z,968.65
2018-10-09T01:40:46.940Z,968.62
2018-10-09T01:41:46.938Z,968.63
2018-10-09T01:42:46.935Z,968.61
2018-10-09T01:43:46.932Z,968.61
2018-10-09T01:44:46.927Z,968.59
2018-10-09T01:45:46.926Z,968.61
2018-10-09T01:46:46.924Z,968.60
2018-10-09T01:47:46.920Z,968.58
2018-10-09T01:48:46.917Z,968.59
2018-10-09T01:49:46.915Z,968.57
2018-10-09T01:50:46.912Z,968.57
2018-10-09T01:51:46.909Z,968.54
2018-10-09T01:52:46.908Z,968.57
2018-10-09T01:53:46.906Z,968.53
2018-10-09T01:54:46.901Z,968.55
2018-10-09T01:55:46.897Z,968.54
2018-10-09T01:56:46.897Z,968.57
2018-10-09T01:57:46.894Z,968.57
2018-10-09T01:58:46.891Z,968.59
2018-10-09T01:59:46.884Z,968.52
2018-10-09T02:00:46.886Z,968.56
2018-10-09T02:01:46.893Z,968.54
2018-10-09T02:02:46.880Z,968.53
2018-10-09T02:03:46.878Z,968.52
2018-10-09T02:04:46.883Z,968.52
2018-10-09T02:05:46.872Z,968.52
2018-10-09T02:06:46.870Z,968.51
2018-10-09T02:07:46.866Z,968.46
2018-10-09T02:08:46.864Z,968.48
2018-10-09T02:09:46.861Z,968.51
2018-10-09T02:10:46.856Z,968.48
2018-10-09T02:11:46.855Z,968.46
2018-10-09T02:12:46.853Z,968.50
2018-10-09T02:13:46.853Z,968.48
2018-10-09T02:14:46.866Z,968.48
2018-10-09T02:15:46.846Z,968.49
2018-10-09T02:16:46.841Z,968.49
2018-10-09T02:17:46.839Z,968.44
2018-10-09T02:18:46.836Z,968.43
2018-10-09T02:19:46.833Z,968.41
2018-10-09T02:20:46.837Z,968.41
2018-10-09T02:21:46.828Z,968.42
2018-10-09T02:22:46.826Z,968.37
2018-10-09T02:23:46.822Z,968.38
2018-10-09T02:24:46.834Z,968.38
2018-10-09T02:25:46.823Z,968.39
2018-10-09T02:26:46.849Z,968.36
2018-10-09T02:27:46.810Z,968.32
2018-10-09T02:28:46.838Z,968.36
2018-10-09T02:29:46.805Z,968.33
2018-10-09T02:30:46.802Z,968.34
2018-10-09T02:31:46.798Z,968.36
2018-10-09T02:32:46.796Z,968.39
2018-10-09T02:33:46.863Z,968.38
2018-10-09T02:34:46.791Z,968.39
2018-10-09T02:35:46.787Z,968.37
2018-10-09T02:36:46.784Z,968.33
2018-10-09T02:37:46.786Z,968.35
2018-10-09T02:38:46.778Z,968.33
2018-10-09T02:39:46.775Z,968.36
2018-10-09T02:40:46.773Z,968.33
2018-10-09T02:41:46.770Z,968.31
2018-10-09T02:42:46.768Z,968.38
2018-10-09T02:43:46.768Z,968.42
2018-10-09T02:44:46.764Z,968.43
2018-10-09T02:45:46.760Z,968.38
2018-10-09T02:46:46.756Z,968.38
2018-10-09T02:47:46.752Z,968.35
2018-10-09T02:48:46.750Z,968.32
2018-10-09T02:49:46.748Z,968.34
2018-10-09T02:50:46.739Z,968.31
2018-10-09T02:51:46.740Z,968.37
2018-10-09T02:52:46.738Z,968.36
2018-10-09T02:53:46.732Z,968.35
2018-10-09T02:54:46.737Z,968.38
2018-10-09T02:55:46.730Z,968.36
2018-10-09T02:56:46.729Z,968.37
2018-10-09T02:57:46.725Z,968.36
2018-10-09T02:58:46.721Z,968.34
2018-10-09T02:59:46.719Z,968.38
2018-10-09T03:00:46.719Z,968.37
2018-10-09T03:01:46.712Z,968.36
2018-10-09T03:02:46.709Z,968.31
2018-10-09T03:03:46.707Z,968.30
2018-10-09T03:04:46.703Z,968.28
2018-10-09T03:05:46.704Z,968.24
2018-10-09T03:06:46.698Z,968.29
2018-10-09T03:07:46.694Z,968.26
2018-10-09T03:08:46.701Z,968.28
2018-10-09T03:09:46.690Z,968.28
2018-10-09T03:10:46.687Z,968.27
2018-10-09T03:11:46.680Z,968.35
2018-10-09T03:12:46.680Z,968.37
2018-10-09T03:13:46.678Z,968.31
2018-10-09T03:14:46.680Z,968.34
2018-10-09T03:15:46.673Z,968.34
2018-10-09T03:16:46.668Z,968.28
2018-10-09T03:17:46.667Z,968.31
2018-10-09T03:18:46.665Z,968.37
2018-10-09T03:19:46.659Z,968.32
2018-10-09T03:20:46.717Z,968.31
2018-10-09T03:21:46.651Z,968.34
2018-10-09T03:22:46.650Z,968.36
2018-10-09T03:23:46.644Z,968.39
2018-10-09T03:24:46.644Z,968.32
2018-10-09T03:25:46.641Z,968.33
2018-10-09T03:26:46.639Z,968.36
2018-10-09T03:27:46.635Z,968.35
2018-10-09T03:28:46.632Z,968.34
2018-10-09T03:29:46.630Z,968.37
2018-10-09T03:30:46.630Z,968.34
2018-10-09T03:31:46.626Z,968.33
2018-10-09T03:32:46.622Z,968.36
2018-10-09T03:33:46.615Z,968.35
2018-10-09T03:34:46.619Z,968.34
2018-10-09T03:35:46.610Z,968.34
2018-10-09T03:36:46.609Z,968.28
2018-10-09T03:37:46.607Z,968.33
2018-10-09T03:38:46.602Z,968.39
2018-10-09T03:39:46.600Z,968.37
2018-10-09T03:40:46.596Z,968.35
2018-10-09T03:41:46.595Z,968.39
2018-10-09T03:42:46.595Z,968.37
2018-10-09T03:43:46.589Z,968.37
2018-10-09T03:44:46.584Z,968.37
2018-10-09T03:45:46.579Z,968.36
2018-10-09T03:46:46.579Z,968.32
2018-10-09T03:47:46.577Z,968.37
2018-10-09T03:48:46.573Z,968.33
2018-10-09T03:49:46.569Z,968.31
2018-10-09T03:50:46.566Z,968.32
2018-10-09T03:51:46.563Z,968.34
2018-10-09T03:52:46.563Z,968.32
2018-10-09T03:53:46.557Z,968.28
2018-10-09T03:54:46.557Z,968.26
2018-10-09T03:55:46.554Z,968.26
2018-10-09T03:56:46.555Z,968.20
2018-10-09T03:57:46.548Z,968.23
2018-10-09T03:58:46.543Z,968.24
2018-10-09T03:59:46.542Z,968.25
2018-10-09T04:00:46.536Z,968.21
2018-10-09T04:01:46.538Z,968.25
2018-10-09T04:02:46.531Z,968.19
2018-10-09T04:03:46.528Z,968.19
2018-10-09T04:04:46.525Z,968.23
2018-10-09T04:05:46.523Z,968.23
2018-10-09T04:06:46.522Z,968.28
2018-10-09T04:07:46.518Z,968.28
2018-10-09T04:08:46.516Z,968.26
2018-10-09T04:09:46.512Z,968.35
2018-10-09T04:10:46.508Z,968.29
2018-10-09T04:11:46.511Z,968.30
2018-10-09T04:12:46.560Z,968.28
2018-10-09T04:13:46.510Z,968.26
2018-10-09T04:14:46.495Z,968.28
2018-10-09T04:15:46.492Z,968.27
2018-10-09T04:16:46.495Z,968.28
2018-10-09T04:17:46.489Z,968.26
2018-10-09T04:18:46.484Z,968.31
2018-10-09T04:19:46.481Z,968.28
2018-10-09T04:20:46.476Z,968.30
2018-10-09T04:21:46.474Z,968.29
2018-10-09T04:22:46.473Z,968.32
2018-10-09T04:23:46.467Z,968.30
2018-10-09T04:24:46.464Z,968.31
2018-10-09T04:25:46.477Z,968.34
2018-10-09T04:26:46.459Z,968.34
2018-10-09T04:27:46.459Z,968.35
2018-10-09T04:28:46.452Z,968.38
2018-10-09T04:29:46.450Z,968.36
2018-10-09T04:30:46.447Z,968.41
2018-10-09T04:31:46.443Z,968.41
2018-10-09T04:32:46.441Z,968.38
2018-10-09T04:33:46.437Z,968.37
2018-10-09T04:34:46.439Z,968.38
2018-10-09T04:35:46.434Z,968.38
2018-10-09T04:36:46.446Z,968.36
2018-10-09T04:37:46.429Z,968.41
2018-10-09T04:38:46.424Z,968.35
2018-10-09T04:39:46.419Z,968.39
2018-10-09T04:40:46.415Z,968.38
2018-10-09T04:41:46.413Z,968.35
2018-10-09T04:42:46.410Z,968.34
2018-10-09T04:43:46.407Z,968.40
2018-10-09T04:44:46.405Z,968.37
2018-10-09T04:45:46.401Z,968.36
2018-10-09T04:46:46.400Z,968.38
2018-10-09T04:47:46.392Z,968.39
2018-10-09T04:48:46.418Z,968.36
2018-10-09T04:49:46.391Z,968.39
2018-10-09T04:50:46.387Z,968.34
2018-10-09T04:51:46.380Z,968.37
2018-10-09T04:52:46.379Z,968.35
2018-10-09T04:53:46.429Z,968.35
2018-10-09T04:54:46.375Z,968.34
2018-10-09T04:55:46.370Z,968.33
2018-10-09T04:56:46.367Z,968.33
2018-10-09T04:57:46.365Z,968.33
2018-10-09T04:58:46.371Z,968.27
2018-10-09T04:59:46.357Z,968.33
2018-10-09T05:00:46.399Z,968.32
2018-10-09T05:01:46.366Z,968.30
2018-10-09T05:02:46.408Z,968.28
2018-10-09T05:03:46.342Z,968.30
2018-10-09T05:04:46.423Z,968.31
2018-10-09T05:05:46.342Z,968.34
2018-10-09T05:06:46.337Z,968.33
2018-10-09T05:07:46.368Z,968.37
2018-10-09T05:08:46.329Z,968.32
2018-10-09T05:09:46.330Z,968.28
2018-10-09T05:10:46.329Z,968.31
2018-10-09T05:11:46.366Z,968.33
2018-10-09T05:12:46.319Z,968.26
2018-10-09T05:13:46.317Z,968.26
2018-10-09T05:14:46.320Z,968.31
2018-10-09T05:15:46.309Z,968.27
2018-10-09T05:16:46.307Z,968.29
2018-10-09T05:17:46.326Z,968.35
2018-10-09T05:18:46.301Z,968.28
2018-10-09T05:19:46.298Z,968.28
2018-10-09T05:20:46.295Z,968.29
2018-10-09T05:21:46.292Z,968.22
2018-10-09T05:22:46.294Z,968.21
2018-10-09T05:23:46.288Z,968.24
2018-10-09T05:24:46.284Z,968.24
2018-10-09T05:25:46.282Z,968.16
2018-10-09T05:26:46.281Z,968.21
2018-10-09T05:27:46.281Z,968.19
2018-10-09T05:28:46.272Z,968.16
2018-10-09T05:29:46.362Z,968.16
2018-10-09T05:30:46.270Z,968.15
2018-10-09T05:31:46.263Z,968.15
2018-10-09T05:32:46.262Z,968.15
2018-10-09T05:33:46.259Z,968.13
2018-10-09T05:34:46.259Z,968.15
2018-10-09T05:35:46.251Z,968.16
2018-10-09T05:36:46.248Z,968.17
2018-10-09T05:37:46.293Z,968.14
2018-10-09T05:38:46.248Z,968.17
2018-10-09T05:39:46.239Z,968.17
2018-10-09T05:40:46.237Z,968.16
2018-10-09T05:41:46.235Z,968.15
2018-10-09T05:42:46.228Z,968.15
2018-10-09T05:43:46.227Z,968.17
2018-10-09T05:44:46.278Z,968.18
2018-10-09T05:45:46.223Z,968.16
2018-10-09T05:46:46.220Z,968.18
2018-10-09T05:47:46.216Z,968.20
2018-10-09T05:48:46.216Z,968.16
2018-10-09T05:49:46.272Z,968.15
2018-10-09T05:50:46.208Z,968.17
2018-10-09T05:51:46.274Z,968.19
2018-10-09T05:52:46.205Z,968.16
2018-10-09T05:53:46.201Z,968.20
2018-10-09T05:54:46.199Z,968.14
2018-10-09T05:55:46.194Z,968.23
2018-10-09T05:56:46.198Z,968.27
2018-10-09T05:57:46.187Z,968.23
2018-10-09T05:58:46.195Z,968.23
2018-10-09T05:59:46.182Z,968.31
2018-10-09T06:00:46.297Z,968.34
2018-10-09T06:01:46.173Z,968.33
2018-10-09T06:02:46.175Z,968.32
2018-10-09T06:03:46.170Z,968.37
2018-10-09T06:04:46.168Z,968.42
2018-10-09T06:05:46.193Z,968.40
2018-10-09T06:06:46.162Z,968.42
2018-10-09T06:07:46.160Z,968.43
2018-10-09T06:08:46.158Z,968.47
2018-10-09T06:09:46.159Z,968.48
2018-10-09T06:10:46.153Z,968.50
2018-10-09T06:11:46.147Z,968.50
2018-10-09T06:12:46.152Z,968.48
2018-10-09T06:13:46.145Z,968.52
2018-10-09T06:14:46.142Z,968.56
2018-10-09T06:15:46.193Z,968.53
2018-10-09T06:16:46.136Z,968.57
2018-10-09T06:17:46.186Z,968.56
2018-10-09T06:18:46.130Z,968.62
2018-10-09T06:19:46.143Z,968.62
2018-10-09T06:20:46.137Z,968.65
2018-10-09T06:21:46.124Z,968.64
2018-10-09T06:22:46.124Z,968.67
2018-10-09T06:23:46.125Z,968.69
2018-10-09T06:24:46.114Z,968.68
2018-10-09T06:25:46.113Z,968.73
2018-10-09T06:26:46.134Z,968.75
2018-10-09T06:27:46.110Z,968.80
2018-10-09T06:28:46.129Z,968.83
2018-10-09T06:29:46.105Z,968.94
2018-10-09T06:30:46.107Z,968.96
2018-10-09T06:31:46.098Z,968.99
2018-10-09T06:32:46.097Z,968.98
2018-10-09T06:33:46.101Z,969.04
2018-10-09T06:34:46.094Z,969.13
2018-10-09T06:35:46.092Z,969.15
2018-10-09T06:36:46.090Z,969.19
2018-10-09T06:37:46.103Z,969.11
2018-10-09T06:38:46.110Z,969.01
2018-10-09T06:39:46.145Z,969.00
2018-10-09T06:40:46.141Z,969.01
2018-10-09T06:41:46.084Z,969.03
2018-10-09T06:42:46.154Z,969.05
2018-10-09T06:43:46.077Z,969.05
2018-10-09T06:44:46.078Z,969.06
2018-10-09T06:45:46.080Z,969.13
2018-10-09T06:46:46.075Z,969.12
2018-10-09T06:47:46.096Z,969.13
2018-10-09T06:48:46.073Z,969.07
2018-10-09T06:49:46.071Z,969.12
2018-10-09T06:50:46.071Z,969.08
2018-10-09T06:51:46.072Z,969.13
2018-10-09T06:52:46.070Z,969.14
2018-10-09T06:53:46.230Z,969.21
2018-10-09T06:54:46.305Z,969.23
2018-10-09T06:55:46.067Z,969.26
2018-10-09T06:56:46.066Z,969.28
2018-10-09T06:57:46.111Z,969.32
2018-10-09T06:58:46.065Z,969.26
2018-10-09T06:59:46.114Z,969.28
2018-10-09T07:00:46.064Z,969.33
2018-10-09T07:01:46.067Z,969.36
2018-10-09T07:02:46.065Z,969.34
2018-10-09T07:03:46.110Z,969.39
2018-10-09T07:04:46.065Z,969.42
2018-10-09T07:05:46.067Z,969.46
2018-10-09T07:06:46.067Z,969.49
2018-10-09T07:07:46.071Z,969.51
2018-10-09T07:08:46.064Z,969.51
2018-10-09T07:09:46.067Z,969.58
2018-10-09T07:10:46.069Z,969.61
2018-10-09T07:11:46.069Z,969.68
2018-10-09T07:12:46.069Z,969.69
2018-10-09T07:13:46.075Z,969.71
2018-10-09T07:14:46.075Z,969.77
2018-10-09T07:15:46.075Z,969.71
2018-10-09T07:16:46.077Z,969.74
2018-10-09T07:17:46.078Z,969.75
2018-10-09T07:18:46.080Z,969.75
2018-10-09T07:19:46.082Z,969.84
2018-10-09T07:20:46.085Z,969.81
2018-10-09T07:21:46.087Z,969.78
2018-10-09T07:22:46.095Z,969.80
2018-10-09T07:23:46.092Z,969.87
2018-10-09T07:24:46.095Z,969.85
2018-10-09T07:25:46.093Z,969.80
2018-10-09T07:26:46.099Z,969.81
2018-10-09T07:27:46.117Z,969.78
2018-10-09T07:28:46.102Z,969.83
2018-10-09T07:29:46.104Z,969.82
2018-10-09T07:30:46.105Z,969.84
2018-10-09T07:31:46.109Z,969.81
2018-10-09T07:32:46.111Z,969.83
2018-10-09T07:33:46.113Z,969.84
2018-10-09T07:34:46.118Z,969.84
2018-10-09T07:35:46.120Z,969.89
2018-10-09T07:36:46.122Z,969.94
2018-10-09T07:37:46.133Z,969.96
2018-10-09T07:38:46.129Z,969.99
2018-10-09T07:39:46.132Z,969.99
2018-10-09T07:40:46.133Z,969.90
2018-10-09T07:41:46.174Z,969.90
2018-10-09T07:42:46.140Z,969.90
2018-10-09T07:43:46.208Z,969.94
2018-10-09T07:44:46.149Z,969.96
2018-10-09T07:45:46.163Z,969.97
2018-10-09T07:46:46.154Z,969.89
2018-10-09T07:47:46.232Z,969.94
2018-10-09T07:48:46.171Z,969.89
2018-10-09T07:49:46.159Z,969.89
2018-10-09T07:50:46.164Z,969.92
2018-10-09T07:51:46.167Z,969.95
2018-10-09T07:52:46.217Z,969.90
2018-10-09T07:53:46.169Z,969.94
2018-10-09T07:54:46.177Z,969.93
2018-10-09T07:55:46.178Z,969.93
2018-10-09T07:56:46.179Z,969.92
2018-10-09T07:57:46.187Z,969.95
2018-10-09T07:58:46.269Z,969.92
2018-10-09T07:59:46.198Z,969.96
2018-10-09T08:00:46.192Z,969.94
2018-10-09T08:01:46.193Z,970.06
2018-10-09T08:02:46.197Z,970.04
2018-10-09T08:03:46.198Z,970.04
2018-10-09T08:04:46.244Z,970.12
2018-10-09T08:05:46.202Z,970.11
2018-10-09T08:06:46.208Z,970.17
2018-10-09T08:07:46.211Z,970.23
2018-10-09T08:08:46.216Z,970.21
2018-10-09T08:09:46.218Z,970.09
2018-10-09T08:10:46.239Z,970.07
2018-10-09T08:11:46.222Z,970.09
2018-10-09T08:12:46.226Z,970.07
2018-10-09T08:13:46.233Z,970.08
2018-10-09T08:14:46.232Z,970.07
2018-10-09T08:15:46.235Z,970.12
2018-10-09T08:16:46.239Z,970.11
2018-10-09T08:17:46.239Z,970.18
2018-10-09T08:18:46.249Z,970.20
2018-10-09T08:19:46.251Z,970.28
2018-10-09T08:20:46.258Z,970.22
2018-10-09T08:21:46.256Z,970.19
2018-10-09T08:22:46.268Z,970.16
2018-10-09T08:23:46.275Z,970.15
2018-10-09T08:24:46.271Z,970.16
2018-10-09T08:25:46.339Z,970.17
2018-10-09T08:26:46.281Z,970.16
2018-10-09T08:27:46.345Z,970.15
2018-10-09T08:28:46.293Z,970.19
2018-10-09T08:29:46.292Z,970.19
2018-10-09T08:30:46.295Z,970.24
2018-10-09T08:31:46.300Z,970.25
2018-10-09T08:32:46.305Z,970.19
2018-10-09T08:33:46.317Z,970.22
2018-10-09T08:34:46.315Z,970.22
2018-10-09T08:35:46.318Z,970.19
2018-10-09T08:36:46.323Z,970.23
2018-10-09T08:37:46.330Z,970.22
2018-10-09T08:38:46.335Z,970.21
2018-10-09T08:39:46.338Z,970.16
2018-10-09T08:40:46.347Z,970.22
2018-10-09T08:41:46.346Z,970.22
2018-10-09T08:42:46.350Z,970.19
2018-10-09T08:43:46.357Z,970.21
2018-10-09T08:44:46.360Z,970.18
2018-10-09T08:45:46.366Z,970.16
2018-10-09T08:46:46.372Z,970.20
2018-10-09T08:47:46.376Z,970.24
2018-10-09T08:48:46.380Z,970.26
2018-10-09T08:49:46.382Z,970.24
2018-10-09T08:50:46.390Z,970.25
2018-10-09T08:51:46.424Z,970.23
2018-10-09T08:52:46.400Z,970.22
2018-10-09T08:53:46.408Z,970.19
2018-10-09T08:54:46.408Z,970.15
2018-10-09T08:55:46.414Z,970.16
2018-10-09T08:56:46.423Z,970.18
2018-10-09T08:57:46.430Z,970.18
2018-10-09T08:58:46.429Z,970.14
2018-10-09T08:59:46.433Z,970.14
2018-10-09T09:00:46.443Z,970.13
2018-10-09T09:01:46.444Z,970.13
2018-10-09T09:02:46.451Z,970.13
2018-10-09T09:03:46.457Z,970.13
2018-10-09T09:04:46.459Z,970.13
2018-10-09T09:05:46.463Z,970.11
2018-10-09T09:06:46.468Z,970.15
2018-10-09T09:07:46.476Z,970.14
2018-10-09T09:08:46.481Z,970.13
2018-10-09T09:09:46.513Z,970.13
2018-10-09T09:10:46.491Z,970.16
2018-10-09T09:11:46.490Z,970.13
2018-10-09T09:12:46.497Z,970.16
2018-10-09T09:13:46.502Z,970.16
2018-10-09T09:14:46.511Z,970.11
2018-10-09T09:15:46.513Z,970.14
2018-10-09T09:16:46.517Z,970.22
2018-10-09T09:17:46.522Z,970.25
2018-10-09T09:18:46.526Z,970.20
2018-10-09T09:19:46.532Z,970.25
2018-10-09T09:20:46.567Z,970.29
2018-10-09T09:21:46.544Z,970.34
2018-10-09T09:22:46.548Z,970.31
2018-10-09T09:23:46.553Z,970.40
2018-10-09T09:24:46.571Z,970.39
2018-10-09T09:25:46.563Z,970.39
2018-10-09T09:26:46.695Z,970.38
2018-10-09T09:27:46.624Z,970.37
2018-10-09T09:28:46.579Z,970.44
2018-10-09T09:29:46.585Z,970.44
2018-10-09T09:30:46.585Z,970.40
2018-10-09T09:31:46.591Z,970.43
2018-10-09T09:32:46.600Z,970.39
2018-10-09T09:33:46.605Z,970.36
2018-10-09T09:34:46.613Z,970.27
2018-10-09T09:35:46.617Z,970.21
2018-10-09T09:36:46.625Z,970.30
2018-10-09T09:37:46.632Z,970.31
2018-10-09T09:38:46.671Z,970.36
2018-10-09T09:39:46.641Z,970.34
2018-10-09T09:40:46.648Z,970.35
2018-10-09T09:41:46.659Z,970.35
2018-10-09T09:42:46.664Z,970.37
2018-10-09T09:43:46.669Z,970.41
2018-10-09T09:44:46.675Z,970.41
2018-10-09T09:45:46.701Z,970.46
2018-10-09T09:46:46.689Z,970.45
2018-10-09T09:47:46.692Z,970.50
2018-10-09T09:48:46.701Z,970.51
2018-10-09T09:49:46.708Z,970.45
2018-10-09T09:50:46.718Z,970.46
2018-10-09T09:51:46.719Z,970.41
2018-10-09T09:52:46.729Z,970.32
2018-10-09T09:53:46.733Z,970.44
2018-10-09T09:54:46.743Z,970.34
2018-10-09T09:55:46.749Z,970.32
2018-10-09T09:56:46.762Z,970.31
2018-10-09T09:57:46.780Z,970.33
2018-10-09T09:58:47.045Z,970.27
2018-10-09T09:59:46.781Z,970.28
2018-10-09T10:00:46.786Z,970.33
2018-10-09T10:01:46.792Z,970.36
2018-10-09T10:02:46.800Z,970.36
2018-10-09T10:03:46.835Z,970.34
2018-10-09T10:04:46.811Z,970.34
2018-10-09T10:05:46.824Z,970.36
2018-10-09T10:06:46.831Z,970.35
2018-10-09T10:07:46.833Z,970.32
2018-10-09T10:08:46.841Z,970.30
2018-10-09T10:09:46.849Z,970.33
2018-10-09T10:10:46.856Z,970.26
2018-10-09T10:11:46.865Z,970.32
2018-10-09T10:12:46.868Z,970.28
2018-10-09T10:13:46.875Z,970.30
2018-10-09T10:14:46.884Z,970.35
2018-10-09T10:15:46.958Z,970.29
2018-10-09T10:16:46.896Z,970.26
2018-10-09T10:17:46.901Z,970.26
2018-10-09T10:18:46.908Z,970.26
2018-10-09T10:19:46.913Z,970.26
2018-10-09T10:20:46.923Z,970.26
2018-10-09T10:21:46.928Z,970.27
2018-10-09T10:22:46.937Z,970.24
2018-10-09T10:23:46.943Z,970.27
2018-10-09T10:24:46.945Z,970.27
2018-10-09T10:25:46.952Z,970.27
2018-10-09T10:26:46.956Z,970.27
2018-10-09T10:27:46.973Z,970.27
2018-10-09T10:28:46.971Z,970.25
2018-10-09T10:29:46.976Z,970.25
2018-10-09T10:30:46.983Z,970.23
2018-10-09T10:31:46.989Z,970.24
2018-10-09T10:32:46.994Z,970.24
2018-10-09T10:33:47.000Z,970.24
2018-10-09T10:34:47.008Z,970.28
2018-10-09T10:35:47.069Z,970.26
2018-10-09T10:36:47.086Z,970.26
2018-10-09T10:37:47.026Z,970.29
2018-10-09T10:38:47.033Z,970.24
2018-10-09T10:39:47.038Z,970.26
2018-10-09T10:40:47.066Z,970.26
2018-10-09T10:41:47.049Z,970.28
2018-10-09T10:42:47.055Z,970.25
2018-10-09T10:43:47.064Z,970.23
2018-10-09T10:44:47.068Z,970.24
2018-10-09T10:45:47.072Z,970.21
2018-10-09T10:46:47.105Z,970.20
2018-10-09T10:47:47.087Z,970.16
2018-10-09T10:48:47.097Z,970.11
2018-10-09T10:49:47.098Z,970.10
2018-10-09T10:50:47.106Z,970.08
2018-10-09T10:51:47.109Z,970.06
2018-10-09T10:52:47.118Z,970.06
2018-10-09T10:53:47.119Z,970.09
2018-10-09T10:54:47.156Z,970.08
2018-10-09T10:55:47.184Z,970.09
2018-10-09T10:56:47.144Z,970.08
2018-10-09T10:57:47.229Z,970.09
2018-10-09T10:58:47.154Z,970.13
2018-10-09T10:59:47.158Z,970.09
2018-10-09T11:00:47.162Z,970.13
2018-10-09T11:01:47.212Z,970.08
2018-10-09T11:02:47.187Z,970.07
2018-10-09T11:03:47.180Z,970.08
2018-10-09T11:04:47.189Z,970.05
2018-10-09T11:05:47.194Z,970.03
2018-10-09T11:06:47.211Z,970.01
2018-10-09T11:07:47.213Z,970.04
2018-10-09T11:08:47.216Z,970.01
2018-10-09T11:09:47.215Z,970.02
2018-10-09T11:10:47.220Z,969.99
2018-10-09T11:11:47.228Z,969.96
2018-10-09T11:12:47.233Z,969.99
2018-10-09T11:13:47.237Z,969.96
2018-10-09T11:14:47.300Z,969.95
2018-10-09T11:15:47.251Z,969.98
2018-10-09T11:16:47.254Z,969.95
2018-10-09T11:17:47.260Z,969.94
2018-10-09T11:18:47.266Z,969.95
2018-10-09T11:19:47.273Z,969.92
2018-10-09T11:20:47.280Z,969.89
2018-10-09T11:21:47.288Z,969.85
2018-10-09T11:22:47.290Z,969.84
2018-10-09T11:23:47.295Z,969.89
2018-10-09T11:24:47.301Z,969.83
2018-10-09T11:25:47.312Z,969.84
2018-10-09T11:26:47.312Z,969.85
2018-10-09T11:27:47.318Z,969.83
2018-10-09T11:28:47.323Z,969.83
2018-10-09T11:29:47.329Z,969.82
2018-10-09T11:30:47.337Z,969.79
2018-10-09T11:31:47.341Z,969.81
2018-10-09T11:32:47.347Z,969.79
2018-10-09T11:33:47.352Z,969.78
2018-10-09T11:34:47.359Z,969.78
2018-10-09T11:35:47.363Z,969.79
2018-10-09T11:36:47.369Z,969.81
2018-10-09T11:37:47.375Z,969.85
2018-10-09T11:38:47.381Z,969.84
2018-10-09T11:39:47.386Z,969.86
2018-10-09T11:40:47.393Z,969.83
2018-10-09T11:41:47.399Z,969.84
2018-10-09T11:42:47.424Z,969.85
2018-10-09T11:43:47.409Z,969.85
2018-10-09T11:44:47.415Z,969.82
2018-10-09T11:45:47.421Z,969.79
2018-10-09T11:46:47.425Z,969.77
2018-10-09T11:47:47.432Z,969.77
2018-10-09T11:48:47.437Z,969.78
2018-10-09T11:49:47.465Z,969.74
2018-10-09T11:50:47.450Z,969.74
2018-10-09T11:51:47.453Z,969.75
2018-10-09T11:52:47.459Z,969.75
2018-10-09T11:53:47.464Z,969.74
2018-10-09T11:54:47.471Z,969.73
2018-10-09T11:55:47.475Z,969.66
2018-10-09T11:56:47.482Z,969.69
2018-10-09T11:57:47.487Z,969.67
2018-10-09T11:58:47.494Z,969.67
2018-10-09T11:59:47.497Z,969.68
2018-10-09T12:00:47.504Z,969.70
2018-10-09T12:01:47.510Z,969.68
2018-10-09T12:02:47.597Z,969.67
2018-10-09T12:03:47.521Z,969.66
2018-10-09T12:04:47.527Z,969.68
2018-10-09T12:05:47.591Z,969.68
2018-10-09T12:06:47.538Z,969.70
2018-10-09T12:07:47.543Z,969.70
2018-10-09T12:08:47.550Z,969.66
2018-10-09T12:09:47.560Z,969.70
2018-10-09T12:10:47.562Z,969.69
2018-10-09T12:11:47.580Z,969.70
2018-10-09T12:12:47.574Z,969.64
2018-10-09T12:13:47.579Z,969.63
2018-10-09T12:14:47.586Z,969.65
2018-10-09T12:15:47.605Z,969.62
2018-10-09T12:16:47.598Z,969.61
2018-10-09T12:17:47.603Z,969.65
2018-10-09T12:18:47.609Z,969.65
2018-10-09T12:19:47.614Z,969.61
2018-10-09T12:20:47.627Z,969.62
2018-10-09T12:21:47.632Z,969.59
2018-10-09T12:22:47.633Z,969.61
2018-10-09T12:23:47.635Z,969.57
2018-10-09T12:24:47.642Z,969.59
2018-10-09T12:25:47.648Z,969.59
2018-10-09T12:26:47.656Z,969.58
2018-10-09T12:27:47.679Z,969.60
2018-10-09T12:28:47.667Z,969.56